createdAt,value
2022-10-17T00:00:53.074Z,18.75
2022-10-17T00:03:25.821Z,16.70
2022-10-17T00:05:58.382Z,18.67
2022-10-17T00:08:30.247Z,17.42
2022-10-17T00:11:06.803Z,16.65
2022-10-17T00:13:38.631Z,15.30
2022-10-17T00:16:13.665Z,19.15
2022-10-17T00:18:45.300Z,17.73
2022-10-17T00:21:18.840Z,18.17
2022-10-17T00:23:50.930Z,23.48
2022-10-17T00:26:22.880Z,18.42
2022-10-17T00:28:54.871Z,21.08
2022-10-17T00:31:26.782Z,22.38
2022-10-17T00:33:58.600Z,19.98
2022-10-17T00:36:33.047Z,19.20
2022-10-17T00:39:04.742Z,16.65
2022-10-17T00:41:40.696Z,17.77
2022-10-17T00:44:30.853Z,19.00
2022-10-17T00:47:06.305Z,17.33
2022-10-17T00:49:40.793Z,18.42
2022-10-17T00:52:17.128Z,17.08
2022-10-17T00:54:54.324Z,21.10
2022-10-17T00:57:31.491Z,18.05
2022-10-17T01:00:06.732Z,16.52
2022-10-17T01:02:40.026Z,20.27
2022-10-17T01:05:12.810Z,17.92
2022-10-17T01:07:46.193Z,18.05
2022-10-17T01:10:19.075Z,21.80
2022-10-17T01:13:17.560Z,20.83
2022-10-17T01:16:05.530Z,20.13
2022-10-17T01:18:45.044Z,18.67
2022-10-17T01:22:01.619Z,17.08
2022-10-17T01:24:50.192Z,17.63
2022-10-17T01:27:45.701Z,15.63
2022-10-17T01:30:47.783Z,21.08
2022-10-17T01:33:39.995Z,16.33
2022-10-17T01:36:37.464Z,20.35
2022-10-17T01:39:15.961Z,19.17
2022-10-17T01:42:07.104Z,20.27
2022-10-17T01:44:57.645Z,21.23
2022-10-17T01:47:40.576Z,17.10
2022-10-17T01:50:32.220Z,18.83
2022-10-17T01:53:19.761Z,18.20
2022-10-17T01:55:54.188Z,18.00
2022-10-17T01:58:33.867Z,20.30
2022-10-17T02:01:09.919Z,18.88
2022-10-17T02:03:43.833Z,15.90
2022-10-17T02:06:15.605Z,18.33
2022-10-17T02:08:49.371Z,17.17
2022-10-17T02:11:26.374Z,14.75
2022-10-17T02:14:07.165Z,18.20
2022-10-17T02:16:50.540Z,16.92
2022-10-17T02:19:44.093Z,22.65
2022-10-17T02:22:34.870Z,18.95
2022-10-17T02:25:30.792Z,16.63
2022-10-17T02:28:21.056Z,19.90
2022-10-17T02:30:58.359Z,20.05
2022-10-17T02:33:59.531Z,20.92
2022-10-17T02:36:38.917Z,19.98
2022-10-17T02:39:12.517Z,19.05
2022-10-17T02:41:45.577Z,20.08
2022-10-17T02:44:18.829Z,16.80
2022-10-17T02:47:23.674Z,17.90
2022-10-17T02:49:58.512Z,19.17
2022-10-17T02:52:56.089Z,19.02
2022-10-17T02:55:35.932Z,20.92
2022-10-17T02:58:13.764Z,18.50
2022-10-17T03:00:46.186Z,16.55
2022-10-17T03:03:23.596Z,18.63
2022-10-17T03:05:56.048Z,17.80
2022-10-17T03:11:02.631Z,17.70
2022-10-17T03:13:39.006Z,18.77
2022-10-17T03:16:11.823Z,16.55
2022-10-17T03:18:46.609Z,17.58
2022-10-17T03:21:21.030Z,17.48
2022-10-17T03:23:52.808Z,20.75
2022-10-17T03:26:29.500Z,19.48
2022-10-17T03:29:01.821Z,20.00
2022-10-17T03:31:34.727Z,20.40
2022-10-17T03:34:07.603Z,20.00
2022-10-17T03:36:40.356Z,18.52
2022-10-17T03:39:12.265Z,19.55
2022-10-17T03:41:43.993Z,18.23
2022-10-17T03:44:15.791Z,19.15
2022-10-17T03:46:47.948Z,21.73
2022-10-17T03:49:20.221Z,19.75
2022-10-17T03:51:51.938Z,18.85
2022-10-17T03:54:24.507Z,23.48
2022-10-17T03:59:32.084Z,24.58
2022-10-17T04:02:09.693Z,21.33
2022-10-17T04:04:41.759Z,23.52
2022-10-17T04:07:13.861Z,20.88
2022-10-17T04:09:48.997Z,21.88
2022-10-17T04:12:25.323Z,20.08
2022-10-17T04:14:57.921Z,19.55
2022-10-17T04:17:35.800Z,20.38
2022-10-17T04:20:13.580Z,21.23
2022-10-17T04:22:45.340Z,18.33
2022-10-17T04:25:18.178Z,30.42
2022-10-17T04:27:51.765Z,35.13
2022-10-17T04:30:24.490Z,27.63
2022-10-17T04:32:56.206Z,22.88
2022-10-17T04:35:28.137Z,26.08
2022-10-17T04:38:06.665Z,23.63
2022-10-17T04:40:38.490Z,28.75
2022-10-17T04:43:10.278Z,27.20
2022-10-17T04:45:42.426Z,28.10
2022-10-17T04:48:14.859Z,32.85
2022-10-17T04:51:00.408Z,32.70
2022-10-17T04:53:43.008Z,33.20
2022-10-17T04:56:21.200Z,32.95
2022-10-17T04:58:53.039Z,34.92
2022-10-17T05:01:29.705Z,30.60
2022-10-17T05:04:02.511Z,32.30
2022-10-17T05:06:34.797Z,34.95
2022-10-17T05:09:36.937Z,36.30
2022-10-17T05:12:10.426Z,27.33
2022-10-17T05:14:45.916Z,30.77
2022-10-17T05:17:18.906Z,35.05
2022-10-17T05:19:53.123Z,30.98
2022-10-17T05:22:24.923Z,31.15
2022-10-17T05:24:58.405Z,32.42
2022-10-17T05:27:30.421Z,33.33
2022-10-17T05:30:02.277Z,31.33
2022-10-17T05:32:38.522Z,29.15
2022-10-17T05:35:10.436Z,32.67
2022-10-17T05:37:45.851Z,33.85
2022-10-17T05:40:18.221Z,33.33
2022-10-17T05:42:56.511Z,32.35
2022-10-17T05:45:29.718Z,31.92
2022-10-17T05:48:01.952Z,30.17
2022-10-17T05:50:34.020Z,28.55
2022-10-17T05:53:19.887Z,29.08
2022-10-17T05:55:57.144Z,36.95
2022-10-17T05:58:48.804Z,37.97
2022-10-17T06:01:32.261Z,35.03
2022-10-17T06:04:03.982Z,32.00
2022-10-17T06:06:38.002Z,29.73
2022-10-17T06:09:16.407Z,28.90
2022-10-17T06:12:00.829Z,30.27
2022-10-17T06:14:32.550Z,28.55
2022-10-17T06:19:54.249Z,27.38
2022-10-17T06:22:25.981Z,30.70
2022-10-17T06:24:57.850Z,25.40
2022-10-17T06:27:31.678Z,26.17
2022-10-17T06:30:04.451Z,28.45
2022-10-17T06:32:36.753Z,29.42
2022-10-17T06:35:08.532Z,25.20
2022-10-17T06:37:42.350Z,26.90
2022-10-17T06:40:16.828Z,28.38
2022-10-17T06:42:51.766Z,28.55
2022-10-17T06:45:40.891Z,27.33
2022-10-17T06:48:54.300Z,27.50
2022-10-17T06:51:38.060Z,27.00
2022-10-17T06:54:12.777Z,23.83
2022-10-17T06:56:54.194Z,23.15
2022-10-17T06:59:35.610Z,22.83
2022-10-17T07:02:16.906Z,23.98
2022-10-17T07:04:49.351Z,24.65
2022-10-17T07:07:21.053Z,22.52
2022-10-17T07:09:53.087Z,27.05
2022-10-17T07:12:26.176Z,32.70
2022-10-17T07:14:57.848Z,24.73
2022-10-17T07:17:30.046Z,27.80
2022-10-17T07:20:05.367Z,31.13
2022-10-17T07:22:40.426Z,26.35
2022-10-17T07:25:12.282Z,23.42
2022-10-17T07:27:53.283Z,24.02
2022-10-17T07:30:26.895Z,24.50
2022-10-17T07:33:07.464Z,26.45
2022-10-17T07:35:42.750Z,21.30
2022-10-17T07:38:15.688Z,25.75
2022-10-17T07:41:03.380Z,27.52
2022-10-17T07:43:36.783Z,28.98
2022-10-17T07:46:11.517Z,24.63
2022-10-17T07:48:43.797Z,27.58
2022-10-17T07:51:15.584Z,28.00
2022-10-17T07:53:48.898Z,28.00
2022-10-17T07:56:24.681Z,31.00
2022-10-17T08:01:34.069Z,22.35
2022-10-17T08:04:05.885Z,25.40
2022-10-17T08:06:38.340Z,30.52
2022-10-17T08:09:10.029Z,27.52
2022-10-17T08:11:44.080Z,29.05
2022-10-17T08:14:16.941Z,25.38
2022-10-17T08:16:48.662Z,26.35
2022-10-17T08:19:20.432Z,26.05
2022-10-17T08:21:52.444Z,24.13
2022-10-17T08:24:24.168Z,26.33
2022-10-17T08:26:57.510Z,25.27
2022-10-17T08:29:29.359Z,26.88
2022-10-17T08:32:03.001Z,24.83
2022-10-17T08:34:37.602Z,28.75
2022-10-17T08:39:42.322Z,29.88
2022-10-17T08:42:51.379Z,28.77
2022-10-17T08:45:52.501Z,30.15
2022-10-17T08:48:26.255Z,25.20
2022-10-17T08:51:03.283Z,27.48
2022-10-17T08:53:39.752Z,25.05
2022-10-17T08:56:25.125Z,26.38
2022-10-17T08:59:14.532Z,25.08
2022-10-17T09:02:05.407Z,29.15
2022-10-17T09:04:57.621Z,25.27
2022-10-17T09:08:03.337Z,25.83
2022-10-17T09:10:38.406Z,24.92
2022-10-17T09:13:54.157Z,27.42
2022-10-17T09:16:59.840Z,24.67
2022-10-17T09:19:36.455Z,24.67
2022-10-17T09:22:20.210Z,29.23
2022-10-17T09:24:57.041Z,28.92
2022-10-17T09:27:43.299Z,24.55
2022-10-17T09:31:06.832Z,25.27
2022-10-17T09:33:53.921Z,26.58
2022-10-17T09:36:30.222Z,25.70
2022-10-17T09:39:11.435Z,23.75
2022-10-17T09:41:49.798Z,27.45
2022-10-17T09:44:37.957Z,29.30
2022-10-17T09:47:44.402Z,29.08
2022-10-17T09:50:36.540Z,26.27
2022-10-17T09:53:18.636Z,26.08
2022-10-17T09:55:56.226Z,24.67
2022-10-17T09:59:03.512Z,28.40
2022-10-17T10:01:35.330Z,26.90
2022-10-17T10:04:17.469Z,24.95
2022-10-17T10:07:06.816Z,28.00
2022-10-17T10:09:40.198Z,23.00
2022-10-17T10:12:28.921Z,27.90
2022-10-17T10:15:03.211Z,25.08
2022-10-17T10:20:35.193Z,31.52
2022-10-17T10:23:18.300Z,25.13
2022-10-17T10:25:54.952Z,29.55
2022-10-17T10:28:31.080Z,24.10
2022-10-17T10:31:09.906Z,26.75
2022-10-17T10:33:48.076Z,24.70
2022-10-17T10:36:23.042Z,31.55
2022-10-17T10:39:02.579Z,25.15
2022-10-17T10:41:48.129Z,22.20
2022-10-17T10:44:26.367Z,25.93
2022-10-17T10:47:21.328Z,23.63
2022-10-17T10:50:08.581Z,26.23
2022-10-17T10:52:52.557Z,22.20
2022-10-17T10:55:29.814Z,23.75
2022-10-17T10:58:08.573Z,24.27
2022-10-17T11:00:40.846Z,25.83
2022-10-17T11:03:26.704Z,24.10
2022-10-17T11:06:11.526Z,23.23
2022-10-17T11:08:49.304Z,22.90
2022-10-17T11:11:29.695Z,23.48
2022-10-17T11:14:30.547Z,18.52
2022-10-17T11:17:30.663Z,22.23
2022-10-17T11:20:07.424Z,19.88
2022-10-17T11:22:49.294Z,23.40
2022-10-17T11:25:37.980Z,22.55
2022-10-17T11:28:15.695Z,21.63
2022-10-17T11:30:54.638Z,21.88
2022-10-17T11:33:41.847Z,22.92
2022-10-17T11:36:16.968Z,20.52
2022-10-17T11:38:55.625Z,23.98
2022-10-17T11:41:44.039Z,22.33
2022-10-17T11:44:18.586Z,18.70
2022-10-17T11:47:22.914Z,18.90
2022-10-17T11:53:00.713Z,21.35
2022-10-17T11:55:34.451Z,20.92
2022-10-17T12:01:16.118Z,19.92
2022-10-17T12:04:49.435Z,21.80
2022-10-17T12:07:38.349Z,21.95
2022-10-17T12:10:37.186Z,20.67
2022-10-17T12:13:27.999Z,18.35
2022-10-17T12:16:21.528Z,17.58
2022-10-17T12:19:24.436Z,16.92
2022-10-17T12:22:03.669Z,19.30
2022-10-17T12:24:54.259Z,21.48
2022-10-17T12:27:47.415Z,21.55
2022-10-17T12:30:28.722Z,17.90
2022-10-17T12:33:15.303Z,20.58
2022-10-17T12:35:47.302Z,20.70
2022-10-17T12:38:18.938Z,19.20
2022-10-17T12:40:56.220Z,18.15
2022-10-17T12:43:28.468Z,16.42
2022-10-17T12:46:02.454Z,15.35
2022-10-17T12:51:34.687Z,17.30
2022-10-17T12:54:12.929Z,17.88
2022-10-17T12:56:48.146Z,16.92
2022-10-17T12:59:28.894Z,17.88
2022-10-17T13:02:03.586Z,18.08
2022-10-17T13:04:36.572Z,17.80
2022-10-17T13:07:19.786Z,20.48
2022-10-17T13:09:53.421Z,15.55
2022-10-17T13:12:27.665Z,18.35
2022-10-17T13:17:32.143Z,19.30
2022-10-17T13:20:25.648Z,19.67
2022-10-17T13:23:00.859Z,18.33
2022-10-17T13:25:35.520Z,18.83
2022-10-17T13:28:13.695Z,18.42
2022-10-17T13:30:49.639Z,16.58
2022-10-17T13:33:42.665Z,18.80
2022-10-17T13:36:19.720Z,19.70
2022-10-17T13:38:52.165Z,21.98
2022-10-17T13:41:37.058Z,16.35
2022-10-17T13:44:17.749Z,17.15
2022-10-17T13:46:50.233Z,20.38
2022-10-17T13:49:41.797Z,17.67
2022-10-17T13:52:22.225Z,20.95
2022-10-17T13:55:07.339Z,21.10
2022-10-17T13:57:39.040Z,17.67
2022-10-17T14:00:20.447Z,17.35
2022-10-17T14:02:52.193Z,18.38
2022-10-17T14:05:23.920Z,18.13
2022-10-17T14:08:11.160Z,22.48
2022-10-17T14:10:44.592Z,18.13
2022-10-17T14:13:26.116Z,18.83
2022-10-17T14:16:01.569Z,17.85
2022-10-17T14:18:36.850Z,19.42
2022-10-17T14:24:35.651Z,19.17
2022-10-17T14:27:27.861Z,19.08
2022-10-17T14:30:03.856Z,18.17
2022-10-17T14:32:37.081Z,17.88
2022-10-17T14:35:40.367Z,18.10
2022-10-17T14:38:15.771Z,20.65
2022-10-17T14:41:41.288Z,18.45
2022-10-17T14:44:14.021Z,20.45
2022-10-17T14:46:50.763Z,21.08
2022-10-17T14:49:32.895Z,20.02
2022-10-17T14:52:15.179Z,21.95
2022-10-17T14:54:49.809Z,21.50
2022-10-17T14:57:47.075Z,20.05
2022-10-17T15:00:20.875Z,16.80
2022-10-17T15:02:54.829Z,21.73
2022-10-17T15:05:26.952Z,19.45
2022-10-17T15:07:58.642Z,20.30
2022-10-17T15:10:37.395Z,21.70
2022-10-17T15:13:29.028Z,20.13
2022-10-17T15:16:03.066Z,18.33
2022-10-17T15:18:35.030Z,17.92
2022-10-17T15:21:33.253Z,20.63
2022-10-17T15:24:06.160Z,20.10
2022-10-17T15:26:38.189Z,19.42
2022-10-17T15:29:15.451Z,20.58
2022-10-17T15:31:47.088Z,20.95
2022-10-17T15:34:18.792Z,22.52
2022-10-17T15:36:54.705Z,20.92
2022-10-17T15:39:26.466Z,20.63
2022-10-17T15:41:59.171Z,21.83
2022-10-17T15:44:31.361Z,25.38
2022-10-17T15:47:03.563Z,24.52
2022-10-17T15:49:35.374Z,19.25
2022-10-17T15:52:09.020Z,24.15
2022-10-17T15:54:40.862Z,21.55
2022-10-17T15:57:25.532Z,24.55
2022-10-17T15:59:59.500Z,22.90
2022-10-17T16:02:31.209Z,25.05
2022-10-17T16:05:06.343Z,27.17
2022-10-17T16:07:38.059Z,22.90
2022-10-17T16:10:10.424Z,25.25
2022-10-17T16:12:42.857Z,23.48
2022-10-17T16:17:55.803Z,21.42
2022-10-17T16:20:27.837Z,23.00
2022-10-17T16:23:02.387Z,24.00
2022-10-17T16:25:34.892Z,19.70
2022-10-17T16:28:08.470Z,19.83
2022-10-17T16:30:44.573Z,20.17
2022-10-17T16:33:17.970Z,17.30
2022-10-17T16:35:50.186Z,18.23
2022-10-17T16:38:21.880Z,19.50
2022-10-17T16:40:56.800Z,18.10
2022-10-17T16:43:32.239Z,19.15
2022-10-17T16:46:04.452Z,16.92
2022-10-17T16:48:36.237Z,19.63
2022-10-17T16:51:11.256Z,18.30
2022-10-17T16:53:45.585Z,20.73
2022-10-17T16:56:22.057Z,19.15
2022-10-17T16:58:53.792Z,17.67
2022-10-17T17:01:26.618Z,18.80
2022-10-17T17:03:59.139Z,20.98
2022-10-17T17:06:30.928Z,18.83
2022-10-17T17:09:02.761Z,23.77
2022-10-17T17:11:34.871Z,23.98
2022-10-17T17:14:07.507Z,20.38
2022-10-17T17:16:39.329Z,19.30
2022-10-17T17:19:13.670Z,17.30
2022-10-17T17:21:50.139Z,19.40
2022-10-17T17:24:21.913Z,17.85
2022-10-17T17:26:55.353Z,19.80
2022-10-17T17:29:27.244Z,20.20
2022-10-17T17:31:59.024Z,22.85
2022-10-17T17:34:32.149Z,16.63
2022-10-17T17:37:03.837Z,19.90
2022-10-17T17:39:35.481Z,19.88
2022-10-17T17:42:07.154Z,21.27
2022-10-17T17:44:38.819Z,18.67
2022-10-17T17:47:10.588Z,20.17
2022-10-17T17:49:42.347Z,21.58
2022-10-17T17:52:14.111Z,20.98
2022-10-17T17:54:45.922Z,21.20
2022-10-17T17:57:17.653Z,22.88
2022-10-17T17:59:50.267Z,20.50
2022-10-17T18:02:21.981Z,25.02
2022-10-17T18:04:53.654Z,21.75
2022-10-17T18:07:26.840Z,20.13
2022-10-17T18:09:58.663Z,22.98
2022-10-17T18:12:31.125Z,24.42
2022-10-17T18:15:04.822Z,20.40
2022-10-17T18:17:36.742Z,20.75
2022-10-17T18:20:08.814Z,20.02
2022-10-17T18:22:40.593Z,23.45
2022-10-17T18:25:12.924Z,22.65
2022-10-17T18:27:44.603Z,21.45
2022-10-17T18:30:16.569Z,25.95
2022-10-17T18:32:48.320Z,21.42
2022-10-17T18:35:19.944Z,23.70
2022-10-17T18:37:51.651Z,23.70
2022-10-17T18:40:23.390Z,24.80
2022-10-17T18:42:55.084Z,21.40
2022-10-17T18:45:27.175Z,23.27
2022-10-17T18:47:59.067Z,24.25
2022-10-17T18:50:30.742Z,25.73
2022-10-17T18:53:02.415Z,25.15
2022-10-17T18:55:34.120Z,27.42
2022-10-17T18:58:05.949Z,27.48
2022-10-17T19:00:37.595Z,25.67
2022-10-17T19:03:13.260Z,26.10
2022-10-17T19:05:46.274Z,27.80
2022-10-17T19:08:17.976Z,24.95
2022-10-17T19:10:50.029Z,26.33
2022-10-17T19:13:21.855Z,27.17
2022-10-17T19:18:27.712Z,25.55
2022-10-17T19:21:08.917Z,27.65
2022-10-17T19:23:40.649Z,28.33
2022-10-17T19:26:15.907Z,27.80
2022-10-17T19:28:48.123Z,28.08
2022-10-17T19:31:27.107Z,26.02
2022-10-17T19:34:00.235Z,27.67
2022-10-17T19:36:34.117Z,28.27
2022-10-17T19:39:09.423Z,27.10
2022-10-17T19:41:43.318Z,29.15
2022-10-17T19:44:16.226Z,35.03
2022-10-17T19:46:49.428Z,29.13
2022-10-17T19:49:21.502Z,30.52
2022-10-17T19:51:57.470Z,31.08
2022-10-17T19:54:29.366Z,29.42
2022-10-17T19:57:01.056Z,33.10
2022-10-17T19:59:33.146Z,30.60
2022-10-17T20:02:04.958Z,30.13
2022-10-17T20:04:49.528Z,28.40
2022-10-17T20:07:30.706Z,34.67
2022-10-17T20:10:02.510Z,33.90
2022-10-17T20:12:34.885Z,31.42
2022-10-17T20:15:08.105Z,31.45
2022-10-17T20:17:39.816Z,33.78
2022-10-17T20:20:11.768Z,29.20
2022-10-17T20:22:46.334Z,30.88
2022-10-17T20:27:50.250Z,31.50
2022-10-17T20:30:25.127Z,34.70
2022-10-17T20:32:56.971Z,34.35
2022-10-17T20:35:29.240Z,31.63
2022-10-17T20:38:04.785Z,30.33
2022-10-17T20:40:40.140Z,30.80
2022-10-17T20:43:13.454Z,30.70
2022-10-17T20:45:51.346Z,31.05
2022-10-17T20:48:24.207Z,33.50
2022-10-17T20:50:56.064Z,32.67
2022-10-17T20:53:43.064Z,34.60
2022-10-17T20:56:30.553Z,34.47
2022-10-17T20:59:05.483Z,35.72
2022-10-17T21:01:37.290Z,34.40
2022-10-17T21:04:45.284Z,33.30
2022-10-17T21:07:04.203Z,32.50
2022-10-17T21:09:37.197Z,36.10
2022-10-17T21:12:15.218Z,33.95
2022-10-17T21:14:53.814Z,34.17
2022-10-17T21:17:25.727Z,32.03
2022-10-17T21:19:57.543Z,35.72
2022-10-17T21:22:29.826Z,31.75
2022-10-17T21:25:01.868Z,32.55
2022-10-17T21:27:36.932Z,34.58
2022-10-17T21:30:09.102Z,34.47
2022-10-17T21:32:51.678Z,36.38
2022-10-17T21:35:23.732Z,34.75
2022-10-17T21:37:55.539Z,37.95
2022-10-17T21:40:27.237Z,35.92
2022-10-17T21:42:59.257Z,34.38
2022-10-17T21:45:30.919Z,32.53
2022-10-17T21:48:12.494Z,35.47
2022-10-17T21:50:44.929Z,35.28
2022-10-17T21:53:16.689Z,33.42
2022-10-17T21:55:48.373Z,35.17
2022-10-17T21:58:21.777Z,42.13
2022-10-17T22:00:53.447Z,33.75
2022-10-17T22:03:29.061Z,38.47
2022-10-17T22:06:12.742Z,38.33
2022-10-17T22:08:56.230Z,32.58
2022-10-17T22:11:31.615Z,36.90
2022-10-17T22:14:13.731Z,37.80
2022-10-17T22:16:46.580Z,35.53
2022-10-17T22:19:22.490Z,37.67
2022-10-17T22:21:55.193Z,35.22
2022-10-17T22:24:27.183Z,33.00
2022-10-17T22:26:58.889Z,38.60
2022-10-17T22:29:30.665Z,34.38
2022-10-17T22:32:02.347Z,36.08
2022-10-17T22:34:36.611Z,36.00
2022-10-17T22:37:09.305Z,35.28
2022-10-17T22:39:40.964Z,35.90
2022-10-17T22:42:12.678Z,36.40
2022-10-17T22:44:46.506Z,38.10
2022-10-17T22:47:18.188Z,35.60
2022-10-17T22:49:49.877Z,34.95
2022-10-17T22:52:21.575Z,36.70
2022-10-17T22:54:53.581Z,36.67
2022-10-17T22:57:28.312Z,36.65
2022-10-17T23:02:32.678Z,36.05
2022-10-17T23:05:07.586Z,37.25
2022-10-17T23:07:39.547Z,35.28
2022-10-17T23:10:11.393Z,36.03
2022-10-17T23:12:43.504Z,34.25
2022-10-17T23:15:15.296Z,37.15
2022-10-17T23:17:49.689Z,38.00
2022-10-17T23:20:21.607Z,35.80
2022-10-17T23:22:56.339Z,36.50
2022-10-17T23:25:28.131Z,38.25
2022-10-17T23:27:59.898Z,40.55
2022-10-17T23:30:35.162Z,38.65
2022-10-17T23:33:08.283Z,42.08
2022-10-17T23:35:40.121Z,43.90
2022-10-17T23:38:11.747Z,40.55
2022-10-17T23:40:43.423Z,39.85
2022-10-17T23:43:15.058Z,38.60
2022-10-17T23:45:46.687Z,37.75
2022-10-17T23:48:18.626Z,40.17
2022-10-17T23:50:50.327Z,38.25
2022-10-17T23:53:25.248Z,39.33
2022-10-17T23:55:58.909Z,42.03
2022-10-17T23:58:32.974Z,36.83
